»·PEaware :: N1399 KOTH-KEUG

N1399 :: KOTH-KEUG

FLIGHT INFORMATION

Flight Status: Arrived
Operator: Privately registered:
United States
More flights under this callsign
Pilot: David C. (16084)
Aircraft: PIPER PA-31/31P NAVAJO CHIEFTAIN
(PA31)
More flights by this aircraft type
Origin: KOTH North Bend Mun
United States
Destination: KEUG Mahlon Sweet
United States
More flights between these airports :: More routes between these airports
Route: OTH6 SCOTY EUG
File this flight plan on PilotEdge
Remarks:
Altitude:
(Current/Filed)
9,000ft
Speed:
(Current/Filed)
252kts
Departed: 03-Nov-17 08:55 AM
Arrived: 03-Nov-17 09:36 AM
Distance/Time
Traveled:
62nm/0:41
Distance/Time
To Go:
Arrived

Flight Plot

Page will automatically refresh every two minutes.

Flight plan parsing failed; only flown route is shown


Map Options




Map Legend


Flown Route
Filed Route
Departure Airport
Arrival Airport
Navaid (VOR, NDB)
Fix

Horizontal Profiles

Position Reports

Time Latitude Longitude Heading Altitude Ground
Speed
03-Nov-17 08:42 43.416866 -124.249552 211 21ft 0kts
03-Nov-17 08:43 43.416866 -124.249552 211 21ft 0kts
03-Nov-17 08:44 43.416866 -124.249552 211 21ft 0kts
03-Nov-17 08:45 43.416866 -124.249552 211 21ft 0kts
03-Nov-17 08:46 43.416866 -124.249552 211 21ft 0kts
03-Nov-17 08:47 43.416866 -124.249552 211 21ft 0kts
03-Nov-17 08:48 43.416866 -124.249552 211 21ft 0kts
03-Nov-17 08:49 43.416866 -124.249552 211 21ft 0kts
03-Nov-17 08:50 43.416866 -124.249552 211 21ft 0kts
03-Nov-17 08:51 43.416866 -124.249552 211 21ft 0kts
03-Nov-17 08:52 43.416866 -124.249552 211 21ft 0kts
03-Nov-17 08:53 43.416807 -124.249571 172 21ft 2kts
03-Nov-17 08:54 43.417284 -124.249362 346 21ft 0kts
03-Nov-17 08:55 43.417379 -124.249395 345 21ft 4kts
03-Nov-17 08:56 43.419099 -124.246864 61 21ft 0kts
03-Nov-17 08:57 43.419099 -124.246864 61 21ft 0kts
03-Nov-17 08:58 43.419099 -124.246864 61 21ft 0kts
03-Nov-17 08:59 43.418548 -124.245226 149 21ft 36kts
03-Nov-17 09:00 43.393534 -124.237088 238 1461ft 126kts
03-Nov-17 09:01 43.406209 -124.277397 294 3413ft 116kts
03-Nov-17 09:02 43.411261 -124.316655 265 5219ft 111kts
03-Nov-17 09:03 43.433411 -124.337845 19 6955ft 131kts
03-Nov-17 09:04 43.448298 -124.296265 71 8522ft 139kts
03-Nov-17 09:05 43.466123 -124.242914 62 8999ft 200kts
03-Nov-17 09:06 43.492228 -124.178490 60 8982ft 216kts
03-Nov-17 09:07 43.518978 -124.114162 60 8980ft 216kts
03-Nov-17 09:08 43.543533 -124.049473 89 8964ft 211kts
03-Nov-17 09:09 43.566412 -123.987653 53 8981ft 210kts
03-Nov-17 09:10 43.595286 -123.930155 48 8975ft 207kts
03-Nov-17 09:11 43.631641 -123.880865 41 8980ft 203kts
03-Nov-17 09:12 43.667933 -123.833135 41 8980ft 199kts
03-Nov-17 09:13 43.703908 -123.785315 42 8977ft 196kts
03-Nov-17 09:14 43.738262 -123.739405 42 8974ft 193kts
03-Nov-17 09:15 43.769362 -123.697710 42 8971ft 193kts
03-Nov-17 09:16 43.803377 -123.652292 42 8965ft 195kts
03-Nov-17 09:17 43.837212 -123.606826 43 8958ft 196kts
03-Nov-17 09:18 43.871515 -123.560648 43 8852ft 202kts
03-Nov-17 09:19 43.907425 -123.512347 44 7691ft 198kts
03-Nov-17 09:20 43.941197 -123.466711 44 6353ft 190kts
03-Nov-17 09:21 43.975389 -123.420390 45 5016ft 183kts
03-Nov-17 09:22 44.006271 -123.378479 45 4976ft 172kts
03-Nov-17 09:23 44.035462 -123.344289 10 4988ft 180kts
03-Nov-17 09:24 44.079712 -123.346421 355 4995ft 189kts
03-Nov-17 09:25 44.122958 -123.349863 355 4989ft 191kts
03-Nov-17 09:26 44.168324 -123.353467 355 4989ft 191kts
03-Nov-17 09:27 44.214786 -123.357862 355 4542ft 189kts
03-Nov-17 09:28 44.254657 -123.362970 355 4027ft 140kts
03-Nov-17 09:29 44.288502 -123.368079 355 3978ft 133kts
03-Nov-17 09:30 44.312867 -123.352645 83 3987ft 123kts
03-Nov-17 09:31 44.317199 -123.310557 85 3487ft 125kts
03-Nov-17 09:32 44.320999 -123.269164 85 2789ft 120kts
03-Nov-17 09:33 44.306540 -123.239755 145 2786ft 112kts
03-Nov-17 09:34 44.282611 -123.222329 176 2790ft 115kts
03-Nov-17 09:35 44.255551 -123.221234 176 2680ft 112kts
03-Nov-17 09:36 44.229102 -123.220763 178 2205ft 110kts
03-Nov-17 09:37 44.202613 -123.220389 178 1706ft 111kts
03-Nov-17 09:38 44.176406 -123.219796 178 1186ft 100kts
03-Nov-17 09:39 44.154815 -123.219563 178 786ft 87kts
03-Nov-17 09:40 44.136370 -123.219100 179 450ft 77kts
03-Nov-17 09:41 44.125572 -123.218000 147 378ft 0kts
03-Nov-17 09:42 44.125555 -123.217985 147 378ft 2kts
03-Nov-17 09:43 44.122471 -123.215379 149 378ft 22kts
03-Nov-17 09:44 44.121664 -123.213147 59 378ft 16kts

Navigation Log

Ident Type
Flight plan parsing failed, navigation log unavailable